Terminal Aerodrome Forecast
Issued by NWS

Home | Current Version | Previous Version | Text Only | Print | Product List | Glossary On
Versions: 1 2 3 4 5 6 7 8 9 10 11 12 13 14 15 16 17 18 19 20 21
000
FTUS43 KDLH 030903 AAA
TAFBRD
TAF AMD
KBRD 030903Z 0309/0406 VRB04KT P6SM OVC025
      TEMPO 0309/0312 3SM BR SCT004 BKN020
     FM031500 12008G16KT P6SM SKC
     FM040000 10004KT P6SM SKC
     FM040500 10003KT 5SM BR SCT015=

USA.gov is the U.S. government's official web portal to all federal, state and local government web resources and services.